Time;durP1;ratioP1;P1;durP2;ratioP2;P2;SDS_P1;SDS_P2;PMS_P1;PMS_P2;Temp;Humidity;BMP_temperature;BMP_pressure;BME280_temperature;BME280_humidity;BME280_pressure;Samples;Min_cycle;Max_cycle;Signal;HPM_P1;HPM_P2
2023/01/23 00:01:28;;;;;;;0.70;0.70;;;0.20;53.40;;;;;;6149648;23;20423;-74
2023/01/23 00:03:56;;;;;;;0.60;0.60;;;0.30;53.30;;;;;;6151378;23;20453;-75
2023/01/23 00:06:23;;;;;;;0.70;0.70;;;0.30;52.60;;;;;;6149487;23;20441;-75
2023/01/23 00:08:51;;;;;;;0.60;0.60;;;0.40;52.30;;;;;;6151756;23;20390;-74
2023/01/23 00:11:27;;;;;;;0.77;0.77;;;0.40;52.00;;;;;;6151279;23;20906;-74
2023/01/23 00:13:56;;;;;;;0.70;0.70;;;0.50;51.60;;;;;;6151826;23;20457;-74
2023/01/23 00:16:25;;;;;;;0.60;0.60;;;0.60;51.90;;;;;;6150894;23;20358;-75
2023/01/23 00:18:52;;;;;;;0.63;0.63;;;0.50;52.20;;;;;;6151746;23;20876;-74
2023/01/23 00:21:22;;;;;;;0.60;0.60;;;0.50;52.60;;;;;;6149843;23;20370;-75
2023/01/23 00:23:52;;;;;;;0.60;0.60;;;0.50;52.60;;;;;;6151897;23;20378;-75
2023/01/23 00:26:22;;;;;;;0.57;0.57;;;0.40;53.70;;;;;;6149551;23;20499;-74
2023/01/23 00:28:50;;;;;;;0.60;0.60;;;0.20;53.90;;;;;;6150011;23;20385;-74
2023/01/23 00:31:26;;;;;;;0.80;0.80;;;0.10;53.40;;;;;;6150036;23;20419;-75
2023/01/23 00:33:58;;;;;;;0.70;0.70;;;0.20;53.00;;;;;;6151848;23;20797;-75
2023/01/23 00:36:34;;;;;;;0.60;0.60;;;0.20;52.40;;;;;;6151208;23;20407;-75
2023/01/23 00:39:03;;;;;;;1.85;1.75;;;0.30;51.80;;;;;;6151563;23;20858;-75
2023/01/23 00:41:30;;;;;;;0.60;0.60;;;0.70;50.50;;;;;;6149376;23;20401;-76
2023/01/23 00:43:57;;;;;;;0.60;0.60;;;0.90;49.30;;;;;;6151976;23;20429;-75
2023/01/23 00:46:24;;;;;;;0.52;0.52;;;0.80;50.20;;;;;;6148599;23;20386;-75
2023/01/23 00:48:51;;;;;;;0.50;0.50;;;0.70;50.80;;;;;;6149852;23;20466;-74
2023/01/23 00:51:18;;;;;;;0.43;0.43;;;0.80;50.90;;;;;;6150769;23;20710;-74
2023/01/23 00:53:45;;;;;;;0.60;0.60;;;0.80;50.50;;;;;;6151144;23;20386;-75
2023/01/23 00:56:12;;;;;;;0.55;0.55;;;0.90;49.70;;;;;;6151063;23;20370;-74
2023/01/23 00:58:40;;;;;;;0.50;0.50;;;1.10;49.30;;;;;;6149917;23;20367;-75
2023/01/23 01:01:10;;;;;;;0.50;0.50;;;1.20;49.10;;;;;;6148793;23;20370;-75
2023/01/23 01:03:37;;;;;;;0.70;0.70;;;1.20;49.00;;;;;;6149872;23;20377;-74
2023/01/23 01:06:04;;;;;;;0.60;0.60;;;1.20;49.10;;;;;;6149781;23;20703;-75
2023/01/23 01:08:31;;;;;;;0.50;0.50;;;1.20;49.00;;;;;;6149533;23;20437;-74
2023/01/23 01:10:58;;;;;;;0.50;0.50;;;1.20;48.80;;;;;;6151586;23;20378;-74
2023/01/23 01:13:25;;;;;;;0.50;0.50;;;1.20;48.80;;;;;;6150925;23;20838;-74
2023/01/23 01:15:53;;;;;;;0.50;0.50;;;1.20;49.30;;;;;;6151661;23;20377;-74
2023/01/23 01:18:21;;;;;;;0.50;0.50;;;1.10;49.30;;;;;;6149330;23;20423;-75
2023/01/23 01:20:49;;;;;;;0.50;0.50;;;1.00;49.90;;;;;;6149907;23;20405;-74
2023/01/23 01:23:16;;;;;;;0.50;0.43;;;1.00;49.20;;;;;;6151065;23;20381;-74
2023/01/23 01:25:43;;;;;;;0.50;0.50;;;1.00;50.00;;;;;;6149783;23;20739;-75
2023/01/23 01:28:11;;;;;;;1.00;0.50;;;0.90;49.90;;;;;;6149197;23;20719;-74
2023/01/23 01:30:38;;;;;;;0.95;0.95;;;0.80;50.70;;;;;;6149402;23;20410;-75
2023/01/23 01:33:06;;;;;;;0.63;0.63;;;0.70;51.00;;;;;;6151710;23;20385;-75
2023/01/23 01:35:33;;;;;;;0.73;0.73;;;0.60;50.70;;;;;;6148998;23;20445;-75
2023/01/23 01:37:59;;;;;;;0.60;0.60;;;0.60;50.30;;;;;;6150309;23;20449;-74
2023/01/23 01:40:31;;;;;;;0.55;0.55;;;0.60;50.50;;;;;;6148983;23;20378;-75
2023/01/23 01:43:07;;;;;;;0.50;0.50;;;0.60;50.80;;;;;;6151331;23;20549;-75
2023/01/23 01:45:56;;;;;;;0.65;0.65;;;0.70;50.50;;;;;;6149499;23;20830;-75
2023/01/23 01:48:45;;;;;;;0.60;0.60;;;0.80;49.90;;;;;;6150324;23;20516;-74
2023/01/23 01:51:29;;;;;;;0.50;0.50;;;0.90;49.60;;;;;;6149341;23;20875;-74
2023/01/23 01:54:17;;;;;;;0.60;0.60;;;1.00;50.70;;;;;;6151415;23;20370;-75
2023/01/23 01:56:59;;;;;;;0.70;0.70;;;0.90;51.20;;;;;;6173948;23;20369;-75
2023/01/23 01:59:30;;;;;;;0.80;0.60;;;0.70;52.00;;;;;;6151007;23;20397;-76
2023/01/23 11:53:01;;;;;;;1.10;0.50;;;5.80;42.30;;;;;;6134552;23;20853;-77
2023/01/23 11:55:37;;;;;;;0.40;0.40;;;5.80;42.00;;;;;;6124473;23;20374;-80
2023/01/23 11:58:30;;;;;;;0.63;0.60;;;5.90;41.60;;;;;;6126443;23;20771;-78
2023/01/23 12:01:18;;;;;;;0.40;0.40;;;6.00;40.00;;;;;;6074953;23;20379;-77
2023/01/23 12:04:09;;;;;;;0.40;0.40;;;6.10;39.50;;;;;;6120074;23;20376;-77
2023/01/23 12:07:17;;;;;;;0.30;0.30;;;6.30;38.30;;;;;;6071759;23;20380;-78
2023/01/23 12:10:22;;;;;;;0.30;0.30;;;6.50;35.90;;;;;;6109559;23;20442;-77
2023/01/23 12:13:13;;;;;;;1.20;1.20;;;6.60;35.30;;;;;;6120416;23;20379;-77
2023/01/23 12:15:55;;;;;;;0.65;0.65;;;6.70;34.60;;;;;;6095282;23;20395;-76
2023/01/23 12:18:37;;;;;;;0.40;0.40;;;6.70;35.10;;;;;;6121195;23;20387;-77
2023/01/23 12:21:25;;;;;;;0.30;0.30;;;6.80;34.50;;;;;;6095364;23;20375;-76
2023/01/23 12:24:11;;;;;;;0.40;0.40;;;6.80;33.70;;;;;;6095281;23;20434;-76
2023/01/23 12:26:51;;;;;;;0.40;0.40;;;6.90;33.30;;;;;;6095434;23;20379;-75
2023/01/23 12:29:30;;;;;;;0.38;0.38;;;7.00;33.40;;;;;;6095455;23;20418;-75
2023/01/23 12:32:26;;;;;;;0.30;0.30;;;7.00;33.40;;;;;;6094916;23;20712;-76
2023/01/23 12:35:08;;;;;;;0.40;0.40;;;7.10;33.00;;;;;;6096220;23;20403;-75
2023/01/23 12:37:45;;;;;;;0.38;0.38;;;7.10;32.60;;;;;;6120302;23;20748;-76
2023/01/23 12:40:37;;;;;;;0.45;0.45;;;7.10;33.90;;;;;;6095722;23;20375;-76
2023/01/23 12:43:17;;;;;;;0.50;0.47;;;7.00;35.60;;;;;;6066606;23;20842;-75
2023/01/23 12:45:54;;;;;;;0.40;0.40;;;6.90;36.00;;;;;;6094757;23;20369;-76
2023/01/23 12:48:27;;;;;;;0.70;0.38;;;6.90;34.40;;;;;;6094731;23;20392;-76
2023/01/23 12:51:04;;;;;;;0.43;0.43;;;7.00;35.00;;;;;;6121837;23;20832;-75
2023/01/23 12:53:36;;;;;;;1.10;0.70;;;7.00;38.20;;;;;;6094594;23;20376;-76
2023/01/23 12:56:22;;;;;;;1.65;0.50;;;6.90;38.90;;;;;;6095817;23;20439;-75
2023/01/23 12:59:08;;;;;;;0.60;0.60;;;6.90;39.50;;;;;;6094987;23;20927;-76
2023/01/23 13:01:56;;;;;;;0.70;0.70;;;6.70;40.20;;;;;;6094840;23;20841;-76
2023/01/23 13:04:42;;;;;;;0.50;0.50;;;6.70;41.30;;;;;;6096197;23;20748;-76
2023/01/23 13:07:19;;;;;;;0.63;0.63;;;6.60;42.20;;;;;;6119737;23;20421;-75
2023/01/23 13:11:39;;;;;;;0.70;0.70;;;6.30;42.50;;;;;;6094679;23;20491;-76
2023/01/23 13:13:17;;;;;;;0.70;0.70;;;6.20;44.00;;;;;;6120454;23;20375;-77
2023/01/23 13:16:09;;;;;;;0.60;0.60;;;6.10;43.50;;;;;;6096258;23;20384;-76
2023/01/23 13:27:41;;;;;;;0.70;0.70;;;5.80;43.90;;;;;;6120885;23;20368;-75
2023/01/23 13:30:31;;;;;;;0.95;0.65;;;5.70;43.80;;;;;;6095010;23;20736;-77
2023/01/23 13:33:17;;;;;;;1.30;0.90;;;5.60;43.30;;;;;;6084643;23;20446;-77
2023/01/23 13:35:48;;;;;;;1.02;1.02;;;5.60;43.20;;;;;;6121692;23;20391;-76
2023/01/23 13:38:25;;;;;;;0.80;0.70;;;5.70;42.10;;;;;;6119700;23;20419;-76
2023/01/23 13:41:03;;;;;;;0.85;0.85;;;5.60;41.80;;;;;;6094941;23;20415;-76
2023/01/23 13:43:48;;;;;;;0.60;0.60;;;5.70;42.00;;;;;;6096114;23;20858;-76
2023/01/23 13:46:31;;;;;;;0.90;0.50;;;5.70;42.10;;;;;;6095663;23;20434;-76
2023/01/23 13:58:27;;;;;;;0.75;0.75;;;5.70;45.40;;;;;;5812334;24;20879;-77
2023/01/23 14:07:42;;;;;;;1.30;1.20;;;5.50;46.20;;;;;;5733560;24;20885;-76
2023/01/23 14:10:32;;;;;;;0.73;0.73;;;5.50;45.80;;;;;;5734346;24;20393;-79
2023/01/23 14:13:21;;;;;;;0.90;0.90;;;5.50;45.70;;;;;;5735029;24;20881;-79
2023/01/23 14:16:12;;;;;;;1.10;0.80;;;5.60;43.40;;;;;;5752312;24;20736;-77
2023/01/23 14:19:03;;;;;;;1.13;0.80;;;5.60;43.90;;;;;;5739349;24;20415;-77
2023/01/23 14:21:55;;;;;;;1.25;1.15;;;5.70;44.10;;;;;;5683623;24;20767;-77
2023/01/23 14:24:30;;;;;;;1.38;1.27;;;5.70;43.80;;;;;;5740798;24;20412;-77
2023/01/23 14:27:07;;;;;;;1.20;1.20;;;5.70;43.50;;;;;;5792382;24;20394;-77
2023/01/23 14:29:38;;;;;;;1.20;1.10;;;5.80;43.50;;;;;;5791626;24;20464;-77
2023/01/23 14:32:21;;;;;;;1.00;1.00;;;5.80;43.10;;;;;;5826928;24;20398;-78
2023/01/23 14:34:48;;;;;;;1.00;1.00;;;5.90;43.50;;;;;;5866731;24;20395;-77
2023/01/23 14:37:15;;;;;;;0.80;0.80;;;5.80;44.80;;;;;;5866846;24;20387;-77
2023/01/23 14:39:48;;;;;;;0.90;0.90;;;5.80;45.60;;;;;;5866509;24;20425;-77
2023/01/23 14:42:26;;;;;;;0.80;0.80;;;5.80;46.40;;;;;;5881866;23;20387;-77
2023/01/23 14:44:55;;;;;;;0.80;0.80;;;5.80;46.30;;;;;;5981638;23;20442;-77
2023/01/23 14:47:27;;;;;;;1.10;0.98;;;5.80;46.50;;;;;;6096978;23;20431;-77
2023/01/23 14:50:01;;;;;;;1.63;1.10;;;5.80;46.80;;;;;;6097257;23;20394;-78
2023/01/23 14:52:30;;;;;;;1.17;1.10;;;5.80;46.90;;;;;;6096397;23;20380;-77
2023/01/23 14:54:58;;;;;;;1.17;1.10;;;5.80;46.70;;;;;;6095945;23;20383;-78
2023/01/23 14:57:34;;;;;;;1.17;1.17;;;5.90;45.40;;;;;;6098654;23;20376;-77
2023/01/23 15:00:02;;;;;;;0.77;0.77;;;5.90;44.60;;;;;;6096546;23;20443;-76
2023/01/23 15:02:32;;;;;;;1.52;1.42;;;5.90;44.30;;;;;;6096385;23;20406;-76
2023/01/23 15:05:14;;;;;;;2.70;2.50;;;5.80;44.50;;;;;;6096543;23;20479;-77
2023/01/23 15:07:49;;;;;;;2.20;2.10;;;5.70;44.30;;;;;;6096032;23;21005;-77
2023/01/23 15:10:25;;;;;;;1.55;1.45;;;5.80;44.60;;;;;;6122744;23;20703;-77
2023/01/23 15:12:57;;;;;;;1.58;1.48;;;5.80;45.10;;;;;;6095523;23;20765;-77
2023/01/23 15:15:26;;;;;;;1.63;1.52;;;5.80;44.90;;;;;;6122242;23;20384;-77
2023/01/23 15:17:55;;;;;;;1.58;1.48;;;5.80;46.00;;;;;;6096089;23;20371;-76
2023/01/23 15:20:40;;;;;;;1.80;1.40;;;5.70;47.20;;;;;;6096535;23;20728;-77
2023/01/23 15:23:23;;;;;;;1.50;1.40;;;5.70;47.40;;;;;;6095767;23;20744;-77
2023/01/23 15:26:29;;;;;;;1.40;1.30;;;5.70;49.50;;;;;;6121392;23;20376;-76
2023/01/23 15:29:00;;;;;;;1.30;1.20;;;5.70;49.50;;;;;;6085696;23;20403;-76
2023/01/23 15:31:31;;;;;;;3.53;3.22;;;5.40;52.60;;;;;;6096237;23;20382;-76
2023/01/23 15:34:13;;;;;;;1.92;1.83;;;5.20;52.20;;;;;;6095822;23;20376;-78
2023/01/23 15:37:10;;;;;;;1.00;1.00;;;5.20;52.60;;;;;;6096983;23;21170;-76
2023/01/23 15:40:01;;;;;;;1.00;0.93;;;5.20;51.90;;;;;;6120369;23;20442;-76
2023/01/23 15:42:34;;;;;;;1.08;1.08;;;5.20;50.90;;;;;;6120767;23;20394;-76
2023/01/23 15:45:04;;;;;;;0.90;0.90;;;5.20;51.80;;;;;;6097468;23;20409;-76
2023/01/23 15:47:33;;;;;;;1.00;1.00;;;5.20;50.10;;;;;;6095897;23;20391;-76
2023/01/23 15:50:01;;;;;;;1.00;1.00;;;5.30;50.30;;;;;;6121828;23;20749;-76
2023/01/23 15:52:43;;;;;;;1.48;1.00;;;5.30;50.40;;;;;;6095211;23;20451;-76
2023/01/23 15:55:12;;;;;;;1.00;1.00;;;5.20;51.60;;;;;;6095778;23;20384;-79
2023/01/23 15:57:40;;;;;;;0.80;0.70;;;5.20;52.00;;;;;;6095527;23;20372;-76
2023/01/23 16:00:24;;;;;;;0.80;0.80;;;5.20;51.40;;;;;;6096378;23;20752;-76
2023/01/23 16:02:58;;;;;;;1.05;0.95;;;5.10;51.90;;;;;;6096014;23;21580;-77
2023/01/23 16:05:32;;;;;;;0.87;0.70;;;5.20;51.90;;;;;;6096737;23;20411;-76
2023/01/23 16:08:01;;;;;;;1.15;1.15;;;5.10;52.80;;;;;;6095811;23;20376;-77
2023/01/23 16:10:34;;;;;;;1.15;1.10;;;5.00;52.80;;;;;;6096535;23;20380;-76
2023/01/23 16:13:02;;;;;;;3.65;3.45;;;5.00;52.80;;;;;;6095769;23;20678;-77
2023/01/23 16:15:34;;;;;;;3.17;2.97;;;4.90;52.70;;;;;;6096666;23;20395;-76
2023/01/23 16:18:03;;;;;;;4.20;3.90;;;4.90;52.80;;;;;;6095217;23;20372;-76
2023/01/23 16:20:37;;;;;;;3.03;2.83;;;4.90;52.50;;;;;;6097116;23;20379;-76
2023/01/23 16:23:16;;;;;;;1.77;1.67;;;4.90;52.10;;;;;;6095120;23;20422;-76
2023/01/23 16:25:44;;;;;;;1.70;1.60;;;5.00;50.00;;;;;;6094943;23;20383;-76
2023/01/23 16:28:22;;;;;;;2.55;2.35;;;5.00;50.10;;;;;;6096550;23;20756;-77
2023/01/23 16:30:50;;;;;;;2.70;2.60;;;5.10;49.10;;;;;;6120742;23;20390;-76
2023/01/23 16:33:18;;;;;;;1.70;1.60;;;5.40;47.70;;;;;;6096145;23;20463;-76
2023/01/23 16:35:47;;;;;;;1.05;1.05;;;5.40;48.00;;;;;;6095050;23;20868;-77
2023/01/23 16:38:24;;;;;;;1.70;1.17;;;5.50;48.00;;;;;;6096235;23;20422;-76
2023/01/23 16:40:52;;;;;;;1.23;1.20;;;5.50;49.00;;;;;;6095676;23;20398;-76
2023/01/23 16:43:20;;;;;;;1.58;1.48;;;5.40;50.00;;;;;;6096969;23;20381;-76
2023/01/23 16:45:47;;;;;;;1.60;1.33;;;5.30;50.30;;;;;;6121266;23;20387;-76
2023/01/23 16:48:14;;;;;;;2.47;2.38;;;5.20;50.80;;;;;;6096616;23;20398;-77
2023/01/23 16:51:07;;;;;;;1.40;1.20;;;5.20;50.70;;;;;;6097840;23;20568;-76
2023/01/23 16:53:37;;;;;;;1.60;1.50;;;5.20;52.00;;;;;;6095569;23;20455;-77
2023/01/23 16:56:05;;;;;;;1.98;1.25;;;5.10;51.30;;;;;;6095591;23;20447;-76
2023/01/23 16:58:39;;;;;;;1.55;1.45;;;5.10;51.60;;;;;;6121838;23;20455;-77
2023/01/23 17:01:15;;;;;;;2.13;2.00;;;4.90;52.20;;;;;;6096008;23;20378;-76
2023/01/23 17:03:43;;;;;;;2.47;2.38;;;4.90;52.00;;;;;;6096364;23;20454;-76
2023/01/23 17:06:15;;;;;;;1.80;1.70;;;4.80;52.30;;;;;;6095453;23;20375;-76
2023/01/23 17:08:42;;;;;;;1.65;1.50;;;4.90;53.10;;;;;;6096318;23;20384;-76
2023/01/23 17:11:41;;;;;;;1.30;1.30;;;4.90;53.20;;;;;;6095463;23;20372;-76
2023/01/23 17:14:29;;;;;;;1.50;1.40;;;4.80;54.10;;;;;;6092838;23;20744;-76
2023/01/23 17:17:05;;;;;;;1.50;1.40;;;4.80;54.20;;;;;;6095155;23;20387;-77
2023/01/23 17:19:36;;;;;;;1.55;1.45;;;4.80;53.70;;;;;;6096261;23;20382;-77
2023/01/23 17:22:05;;;;;;;2.58;1.40;;;4.80;53.70;;;;;;6095527;23;20375;-76
2023/01/23 17:24:31;;;;;;;1.37;1.30;;;4.80;53.90;;;;;;6096109;23;20769;-76
2023/01/23 17:26:58;;;;;;;1.73;1.63;;;4.80;55.00;;;;;;6094159;23;20407;-77
2023/01/23 17:29:26;;;;;;;1.60;1.50;;;4.70;55.50;;;;;;6095982;23;20698;-75
2023/01/23 17:31:53;;;;;;;1.40;1.17;;;4.70;55.80;;;;;;6094615;23;20654;-76
2023/01/23 17:34:25;;;;;;;1.35;1.25;;;4.60;56.40;;;;;;6096641;23;20375;-76
2023/01/23 17:36:55;;;;;;;1.35;1.25;;;4.60;57.00;;;;;;6094244;23;20753;-77
2023/01/23 17:39:22;;;;;;;1.50;1.40;;;4.40;58.10;;;;;;6095834;23;20435;-76
2023/01/23 17:41:50;;;;;;;1.60;1.50;;;4.40;57.20;;;;;;6095483;23;20379;-76
2023/01/23 17:44:17;;;;;;;1.40;1.40;;;4.40;55.50;;;;;;6097226;23;20375;-76
2023/01/23 17:46:45;;;;;;;2.13;2.00;;;4.50;55.70;;;;;;6098200;23;20375;-76
2023/01/23 17:49:27;;;;;;;1.90;1.80;;;4.50;56.00;;;;;;6096954;23;20435;-76
2023/01/23 17:51:56;;;;;;;2.13;2.03;;;4.50;57.40;;;;;;6121934;23;20387;-76
2023/01/23 17:54:25;;;;;;;1.70;1.60;;;4.40;57.50;;;;;;6097846;23;20410;-76
2023/01/23 17:56:52;;;;;;;1.90;1.80;;;4.50;57.40;;;;;;6096534;23;20402;-78
2023/01/23 17:59:19;;;;;;;2.33;2.22;;;4.50;58.00;;;;;;6098140;23;20852;-76
2023/01/23 18:01:46;;;;;;;1.70;1.60;;;4.50;59.30;;;;;;6097432;23;20380;-76
2023/01/23 18:04:20;;;;;;;1.60;1.50;;;4.60;61.70;;;;;;6095867;23;20383;-77
2023/01/23 18:06:48;;;;;;;1.38;1.27;;;4.60;62.60;;;;;;6097746;23;20728;-77
2023/01/23 18:09:16;;;;;;;1.50;1.40;;;4.60;63.90;;;;;;6097525;23;20734;-76
2023/01/23 18:11:51;;;;;;;1.38;1.38;;;4.50;67.10;;;;;;6098052;23;20434;-77
2023/01/23 18:14:40;;;;;;;1.70;1.60;;;4.40;68.80;;;;;;6097495;23;20395;-76
2023/01/23 18:17:54;;;;;;;2.10;2.00;;;4.20;75.00;;;;;;6122429;23;20384;-77
2023/01/23 18:20:22;;;;;;;4.10;3.90;;;4.00;82.20;;;;;;6010537;23;20421;-78
2023/01/23 18:22:50;;;;;;;3.53;3.33;;;4.00;86.30;;;;;;6088478;23;20855;-77
2023/01/23 18:25:18;;;;;;;4.93;4.63;;;3.80;90.80;;;;;;6097338;23;21903;-77
2023/01/23 18:27:49;;;;;;;4.13;3.92;;;3.80;88.80;;;;;;6097386;23;20376;-78
2023/01/23 18:30:24;;;;;;;3.60;3.40;;;3.80;92.30;;;;;;6097327;23;20467;-77
2023/01/23 18:33:00;;;;;;;3.60;3.40;;;3.70;96.90;;;;;;6097629;23;20391;-77
2023/01/23 18:35:52;;;;;;;3.40;3.20;;;3.70;96.50;;;;;;6121903;23;20368;-78
2023/01/23 18:38:42;;;;;;;3.00;2.80;;;3.80;94.30;;;;;;6096965;23;20392;-77
2023/01/23 18:41:29;;;;;;;2.97;2.72;;;3.90;94.80;;;;;;6096952;23;20693;-77
2023/01/23 18:44:05;;;;;;;1.98;1.88;;;3.90;96.30;;;;;;6097958;23;20733;-77
2023/01/23 18:46:33;;;;;;;1.90;1.80;;;3.80;99.70;;;;;;6122076;23;20396;-78
2023/01/23 18:49:00;;;;;;;1.92;1.83;;;3.70;99.90;;;;;;6095982;23;20451;-78
2023/01/23 18:52:00;;;;;;;1.80;1.70;;;3.70;99.80;;;;;;6097446;23;20463;-78
2023/01/23 18:54:44;;;;;;;1.90;1.80;;;3.60;99.90;;;;;;6093557;23;20383;-78
2023/01/23 18:57:32;;;;;;;1.42;1.40;;;3.70;99.90;;;;;;6122367;23;20395;-78
2023/01/23 19:00:11;;;;;;;1.48;1.40;;;3.70;99.20;;;;;;6102031;23;20379;-79
2023/01/23 19:02:54;;;;;;;1.55;1.50;;;3.70;99.90;;;;;;6107009;23;20438;-79
2023/01/23 19:05:29;;;;;;;1.80;1.70;;;3.70;99.90;;;;;;6106021;23;20764;-79
2023/01/23 19:07:57;;;;;;;1.58;1.48;;;3.70;99.90;;;;;;6110362;23;20372;-78
2023/01/23 19:10:26;;;;;;;1.40;1.33;;;3.70;99.90;;;;;;6111473;23;20368;-79
2023/01/23 19:13:12;;;;;;;1.40;1.40;;;3.80;99.90;;;;;;6113609;23;21034;-79
2023/01/23 19:15:49;;;;;;;1.58;1.48;;;3.70;99.90;;;;;;6115696;23;20709;-78
2023/01/23 19:18:31;;;;;;;1.83;1.73;;;3.70;99.90;;;;;;6114420;23;20383;-78
2023/01/23 19:21:25;;;;;;;2.20;2.10;;;3.80;99.90;;;;;;6116689;23;20457;-78
2023/01/23 19:23:58;;;;;;;2.10;2.00;;;3.70;99.90;;;;;;6115100;23;20845;-78
2023/01/23 19:26:32;;;;;;;1.92;1.83;;;3.80;99.90;;;;;;6114705;23;20836;-77
2023/01/23 19:29:01;;;;;;;1.77;1.67;;;3.70;99.90;;;;;;6112199;23;20399;-77
2023/01/23 19:31:46;;;;;;;2.10;2.00;;;3.60;99.90;;;;;;6109148;23;20380;-78
2023/01/23 19:34:29;;;;;;;1.80;1.70;;;3.60;99.90;;;;;;6111463;23;20387;-78
2023/01/23 19:36:56;;;;;;;2.17;2.07;;;3.60;99.90;;;;;;6104615;23;20760;-77
2023/01/23 19:39:23;;;;;;;1.70;1.60;;;3.70;99.90;;;;;;6098426;23;20375;-80
2023/01/23 19:41:52;;;;;;;1.88;1.77;;;3.70;99.90;;;;;;6097278;23;20716;-78
2023/01/23 19:44:22;;;;;;;1.85;1.75;;;3.60;99.90;;;;;;6097961;23;20375;-77
2023/01/23 19:46:50;;;;;;;1.90;1.80;;;3.50;99.90;;;;;;6104350;23;20407;-78
2023/01/23 19:49:17;;;;;;;4.45;4.25;;;3.30;99.90;;;;;;6135954;23;20372;-78
2023/01/23 19:51:47;;;;;;;3.50;3.30;;;3.20;99.90;;;;;;6105650;23;20376;-77
2023/01/23 19:54:14;;;;;;;3.10;3.00;;;3.00;99.90;;;;;;6105757;23;20380;-77
2023/01/23 19:56:41;;;;;;;3.60;3.40;;;2.90;99.90;;;;;;6100114;23;20431;-78
2023/01/23 19:59:09;;;;;;;3.15;3.05;;;2.80;99.90;;;;;;6101011;23;20371;-78
2023/01/23 20:01:47;;;;;;;4.13;3.92;;;2.80;99.90;;;;;;6103697;23;20379;-79
2023/01/23 20:04:22;;;;;;;4.10;3.90;;;2.70;99.90;;;;;;6104575;23;20403;-78
2023/01/23 20:06:50;;;;;;;4.20;4.00;;;2.70;99.90;;;;;;6105532;23;20395;-79
2023/01/23 20:09:18;;;;;;;4.10;3.90;;;2.90;99.90;;;;;;6104457;23;20750;-78
2023/01/23 20:11:46;;;;;;;4.13;3.93;;;2.90;99.90;;;;;;6133387;23;20372;-78
2023/01/23 20:14:13;;;;;;;3.20;3.03;;;3.10;99.90;;;;;;6108078;23;20419;-79
2023/01/23 20:16:41;;;;;;;2.10;1.92;;;3.20;99.90;;;;;;6110117;23;20836;-79
2023/01/23 20:19:13;;;;;;;2.10;2.00;;;3.20;99.90;;;;;;6114151;23;20418;-78
2023/01/23 20:21:42;;;;;;;2.00;1.90;;;3.20;99.90;;;;;;6114206;23;20457;-80
2023/01/23 20:24:09;;;;;;;1.60;1.50;;;3.20;99.90;;;;;;6110626;23;20410;-78
2023/01/23 20:26:37;;;;;;;2.22;2.13;;;3.20;99.90;;;;;;6108254;23;20426;-78
2023/01/23 20:29:04;;;;;;;2.83;2.63;;;3.20;99.90;;;;;;6110207;23;20372;-79
2023/01/23 20:31:32;;;;;;;4.00;3.80;;;3.10;99.90;;;;;;6113448;23;20408;-79
2023/01/23 20:34:02;;;;;;;4.93;4.63;;;3.00;99.90;;;;;;6139195;23;20434;-78
2023/01/23 20:36:29;;;;;;;3.90;3.70;;;3.10;99.90;;;;;;6116113;23;20382;-79
2023/01/23 20:38:56;;;;;;;4.05;3.85;;;3.10;99.90;;;;;;6133245;23;20378;-80
2023/01/23 20:41:23;;;;;;;5.18;4.88;;;3.10;99.90;;;;;;6101515;23;20382;-80
2023/01/23 20:43:50;;;;;;;6.03;5.60;;;3.10;99.90;;;;;;6098999;23;20379;-79
2023/01/23 20:46:18;;;;;;;3.83;3.63;;;3.20;99.90;;;;;;6110267;23;20379;-80
2023/01/23 20:48:45;;;;;;;2.55;2.45;;;3.30;99.90;;;;;;6106987;23;20367;-79
2023/01/23 20:51:14;;;;;;;2.38;2.17;;;3.30;99.90;;;;;;6111339;23;20371;-80
2023/01/23 20:53:42;;;;;;;1.80;1.70;;;3.30;99.90;;;;;;6104727;23;20442;-79
2023/01/23 20:56:14;;;;;;;2.30;2.20;;;3.20;99.90;;;;;;6102405;23;20376;-80
2023/01/23 21:04:23;;;;;;;2.42;2.22;;;3.20;99.90;;;;;;6125002;23;20383;-79
2023/01/23 21:06:50;;;;;;;2.70;2.50;;;3.20;99.90;;;;;;6099360;23;20705;-79
2023/01/23 21:09:17;;;;;;;2.60;2.50;;;3.20;99.90;;;;;;6100319;23;20386;-79
2023/01/23 21:11:44;;;;;;;2.92;2.83;;;3.30;99.90;;;;;;6100288;23;20378;-79
2023/01/23 21:14:12;;;;;;;3.35;3.15;;;3.30;99.90;;;;;;6125431;23;20368;-80
2023/01/23 21:16:39;;;;;;;3.78;3.58;;;3.40;99.90;;;;;;6098438;23;20363;-79
2023/01/23 21:19:07;;;;;;;4.20;4.00;;;3.40;99.90;;;;;;6098759;23;20372;-79
2023/01/23 21:21:34;;;;;;;3.97;3.70;;;3.50;99.90;;;;;;6098632;23;20376;-80
2023/01/23 21:24:01;;;;;;;3.28;3.15;;;3.50;99.90;;;;;;6101171;23;20701;-81
2023/01/23 21:26:28;;;;;;;2.90;2.70;;;3.50;99.90;;;;;;6099615;23;20391;-81
2023/01/23 21:28:57;;;;;;;2.88;2.78;;;3.50;99.90;;;;;;6097875;23;20382;-80
2023/01/23 21:31:27;;;;;;;2.83;2.73;;;3.40;99.90;;;;;;6098755;23;20375;-79
2023/01/23 21:33:54;;;;;;;3.75;3.55;;;3.30;99.90;;;;;;6097994;23;20375;-79
2023/01/23 21:36:23;;;;;;;4.10;3.90;;;3.30;99.90;;;;;;6096358;23;20383;-79
2023/01/23 21:38:51;;;;;;;3.58;3.38;;;3.30;99.90;;;;;;6097413;23;20438;-78
2023/01/23 21:41:19;;;;;;;3.28;3.08;;;3.30;99.90;;;;;;6097053;23;20874;-78
2023/01/23 21:43:46;;;;;;;2.80;2.70;;;3.30;99.90;;;;;;6097010;23;20375;-79
2023/01/23 21:46:13;;;;;;;2.72;2.63;;;3.40;99.90;;;;;;6101239;23;20379;-78
2023/01/23 21:48:40;;;;;;;2.58;2.47;;;3.40;99.90;;;;;;6113704;23;20374;-79
2023/01/23 21:51:07;;;;;;;2.33;2.22;;;3.50;99.90;;;;;;6115846;23;20847;-80
2023/01/23 21:53:39;;;;;;;2.50;2.40;;;3.50;99.90;;;;;;6114523;23;20392;-79
2023/01/23 21:56:07;;;;;;;2.60;2.50;;;3.50;99.90;;;;;;6114238;23;20419;-80
2023/01/23 21:58:34;;;;;;;2.63;2.53;;;3.50;99.90;;;;;;6114116;23;20371;-80
2023/01/23 22:03:50;;;;;;;2.20;2.10;;;3.60;99.90;;;;;;6139106;23;20376;-80
2023/01/23 22:06:20;;;;;;;2.10;2.00;;;3.70;99.90;;;;;;6141651;23;20355;-79
2023/01/23 22:08:47;;;;;;;2.20;2.10;;;3.70;99.90;;;;;;6110529;23;20372;-79
2023/01/23 22:11:14;;;;;;;1.90;1.80;;;3.80;99.90;;;;;;6106476;23;20741;-81
2023/01/23 22:13:41;;;;;;;1.63;1.52;;;3.90;99.90;;;;;;6107055;23;20836;-80
2023/01/23 22:16:08;;;;;;;1.73;1.63;;;4.00;99.90;;;;;;6106511;23;20450;-80
2023/01/23 22:18:35;;;;;;;2.55;2.45;;;4.00;99.90;;;;;;6107300;23;20384;-79
2023/01/23 22:21:04;;;;;;;2.10;1.95;;;3.90;99.90;;;;;;6107910;23;20407;-80
2023/01/23 22:23:31;;;;;;;2.22;2.13;;;3.90;99.90;;;;;;6105606;23;20434;-79
2023/01/23 22:26:01;;;;;;;2.80;2.60;;;3.90;99.90;;;;;;6107345;23;20376;-80
2023/01/23 22:28:28;;;;;;;2.93;2.77;;;3.80;99.90;;;;;;6104627;23;20482;-80
2023/01/23 22:30:55;;;;;;;2.60;2.50;;;3.60;99.90;;;;;;6111563;23;20380;-80
2023/01/23 22:33:23;;;;;;;2.97;2.88;;;3.50;99.90;;;;;;6107602;23;20450;-79
2023/01/23 22:36:03;;;;;;;2.90;2.80;;;3.50;99.90;;;;;;6100079;23;20752;-80
2023/01/23 22:38:30;;;;;;;3.33;3.22;;;3.40;99.90;;;;;;6097676;23;20400;-80
2023/01/23 22:41:02;;;;;;;4.85;4.55;;;3.30;99.90;;;;;;6096646;23;20427;-79
2023/01/23 22:43:29;;;;;;;4.00;3.80;;;3.20;99.90;;;;;;6097424;23;20681;-80
2023/01/23 22:46:05;;;;;;;2.83;2.72;;;3.30;99.90;;;;;;6096798;23;20391;-79
2023/01/23 22:48:34;;;;;;;2.63;2.53;;;3.30;99.90;;;;;;6097181;23;20380;-77
2023/01/23 22:51:07;;;;;;;2.90;2.80;;;3.40;99.90;;;;;;6096704;23;20440;-77
2023/01/23 22:53:33;;;;;;;3.47;3.28;;;3.40;99.90;;;;;;6096816;23;20384;-76
2023/01/23 22:56:05;;;;;;;4.00;3.80;;;3.40;99.90;;;;;;6095851;23;20371;-78
2023/01/23 22:58:33;;;;;;;5.60;5.30;;;3.30;99.90;;;;;;6096050;23;20384;-77
2023/01/23 23:01:00;;;;;;;5.93;5.55;;;3.40;99.90;;;;;;6096217;23;20696;-77
2023/01/23 23:03:30;;;;;;;4.78;4.47;;;3.40;99.90;;;;;;6097488;23;20718;-78
2023/01/23 23:06:00;;;;;;;3.85;3.65;;;3.30;99.90;;;;;;6096643;23;20384;-78
2023/01/23 23:08:27;;;;;;;3.65;3.45;;;3.40;99.90;;;;;;6097421;23;20411;-77
2023/01/23 23:11:06;;;;;;;3.60;3.40;;;3.50;99.90;;;;;;6096043;23;20375;-78
2023/01/23 23:13:35;;;;;;;2.70;2.60;;;3.50;99.90;;;;;;6096079;23;20438;-77
2023/01/23 23:16:22;;;;;;;2.20;2.10;;;3.60;99.90;;;;;;6094540;23;20456;-77
2023/01/23 23:18:51;;;;;;;1.90;1.80;;;3.70;99.90;;;;;;6122008;23;20379;-78
2023/01/23 23:21:21;;;;;;;2.28;2.17;;;3.70;99.90;;;;;;6096918;23;20791;-78
2023/01/23 23:23:48;;;;;;;2.73;2.63;;;3.80;99.90;;;;;;6095941;23;20733;-77
2023/01/23 23:26:15;;;;;;;2.28;2.17;;;3.80;99.90;;;;;;6096465;23;20439;-77
2023/01/23 23:28:42;;;;;;;2.30;2.20;;;3.80;99.90;;;;;;6095545;23;20454;-78
2023/01/23 23:31:09;;;;;;;1.90;1.80;;;3.80;99.90;;;;;;6094684;23;20383;-77
2023/01/23 23:33:37;;;;;;;1.60;1.50;;;3.90;99.90;;;;;;6096166;23;20415;-78
2023/01/23 23:36:04;;;;;;;2.10;2.00;;;3.80;99.90;;;;;;6096830;23;20394;-77
2023/01/23 23:38:31;;;;;;;2.08;1.98;;;3.80;99.90;;;;;;6097602;23;20387;-78
2023/01/23 23:41:01;;;;;;;1.67;1.63;;;3.80;99.90;;;;;;6095571;23;20753;-77
2023/01/23 23:43:28;;;;;;;2.20;2.10;;;3.90;99.90;;;;;;6097039;23;20376;-78
2023/01/23 23:46:00;;;;;;;1.65;1.60;;;3.80;99.90;;;;;;6096889;23;20380;-77
2023/01/23 23:48:29;;;;;;;2.07;1.97;;;3.80;99.90;;;;;;6098143;23;20466;-77
2023/01/23 23:50:59;;;;;;;1.90;1.80;;;3.80;99.90;;;;;;6120189;23;20897;-77
2023/01/23 23:53:26;;;;;;;1.88;1.77;;;3.90;99.90;;;;;;6096800;23;20376;-78
2023/01/23 23:55:53;;;;;;;1.90;1.80;;;3.90;99.90;;;;;;6096771;23;20410;-77